Time;durP1;ratioP1;P1;durP2;ratioP2;P2;SDS_P1;SDS_P2;PMS_P1;PMS_P2;Temp;Humidity;BMP_temperature;BMP_pressure;BME280_temperature;BME280_humidity;BME280_pressure;Samples;Min_cycle;Max_cycle;Signal;HPM_P1;HPM_P2
2022/05/19 00:01:54;;;;;;;2.25;1.73;;;;;;;;;;5046883;28;20106;-77
2022/05/19 00:04:20;;;;;;;6.97;2.13;;;;;;;;;;5044646;28;20101;-77
2022/05/19 00:06:46;;;;;;;2.95;1.85;;;;;;;;;;5040050;28;20033;-77
2022/05/19 00:09:12;;;;;;;2.97;1.65;;;;;;;;;;5049734;28;20029;-77
2022/05/19 00:11:38;;;;;;;1.63;1.52;;;;;;;;;;5049824;28;20028;-77
2022/05/19 00:14:04;;;;;;;1.85;1.45;;;;;;;;;;5050423;28;20472;-77
2022/05/19 00:16:32;;;;;;;4.85;1.92;;;;;;;;;;5050711;28;20021;-77
2022/05/19 00:18:58;;;;;;;2.47;1.45;;;;;;;;;;5045007;28;20021;-77
2022/05/19 00:21:24;;;;;;;3.33;1.40;;;;;;;;;;5041919;28;20039;-76
2022/05/19 00:23:49;;;;;;;3.33;1.30;;;;;;;;;;5041440;28;20032;-76
2022/05/19 00:26:15;;;;;;;1.73;1.40;;;;;;;;;;5038031;28;20033;-77
2022/05/19 00:28:41;;;;;;;2.15;1.52;;;;;;;;;;5039230;28;20035;-76
2022/05/19 00:31:07;;;;;;;1.30;1.10;;;;;;;;;;5030442;28;20025;-77
2022/05/19 00:33:33;;;;;;;2.35;1.40;;;;;;;;;;5042587;28;20074;-76
2022/05/19 00:36:06;;;;;;;1.65;1.30;;;;;;;;;;5048017;28;20021;-76
2022/05/19 00:38:32;;;;;;;10.38;1.98;;;;;;;;;;5049809;28;20094;-76
2022/05/19 00:40:58;;;;;;;2.92;1.70;;;;;;;;;;5046972;28;20021;-76
2022/05/19 00:43:31;;;;;;;2.60;1.40;;;;;;;;;;5042447;28;20029;-76
2022/05/19 00:46:02;;;;;;;1.70;1.45;;;;;;;;;;5048212;28;20057;-76
2022/05/19 00:48:34;;;;;;;1.47;1.37;;;;;;;;;;5047389;28;20029;-76
2022/05/19 00:51:02;;;;;;;2.63;1.85;;;;;;;;;;5049335;28;20275;-76
2022/05/19 00:53:30;;;;;;;4.00;2.13;;;;;;;;;;5048251;28;20820;-76
2022/05/19 00:55:58;;;;;;;0.98;0.90;;;;;;;;;;5047178;28;20037;-76
2022/05/19 00:58:27;;;;;;;3.05;1.67;;;;;;;;;;5047042;28;20033;-76
2022/05/19 01:00:54;;;;;;;1.63;1.33;;;;;;;;;;5048669;28;20029;-76
2022/05/19 01:03:21;;;;;;;2.22;1.50;;;;;;;;;;5048280;28;20025;-76
2022/05/19 01:05:55;;;;;;;2.10;1.67;;;;;;;;;;5047084;28;20094;-75
2022/05/19 01:08:24;;;;;;;2.08;1.63;;;;;;;;;;5044176;28;20033;-76
2022/05/19 01:10:51;;;;;;;1.83;1.55;;;;;;;;;;5043519;28;20040;-75
2022/05/19 01:13:17;;;;;;;1.77;1.48;;;;;;;;;;5032055;28;20475;-76
2022/05/19 01:15:48;;;;;;;4.53;2.05;;;;;;;;;;5041573;28;20061;-76
2022/05/19 01:18:15;;;;;;;2.75;1.95;;;;;;;;;;5035766;28;20049;-76
2022/05/19 01:20:42;;;;;;;3.08;2.03;;;;;;;;;;5037361;28;20290;-77
2022/05/19 01:23:23;;;;;;;7.20;2.03;;;;;;;;;;5043312;28;20029;-76
2022/05/19 01:25:58;;;;;;;1.95;1.30;;;;;;;;;;5046053;28;20510;-76
2022/05/19 01:28:24;;;;;;;4.55;2.28;;;;;;;;;;5047130;28;20507;-76
2022/05/19 01:30:50;;;;;;;2.03;1.75;;;;;;;;;;5043525;28;20029;-76
2022/05/19 01:33:16;;;;;;;2.20;1.77;;;;;;;;;;5047035;28;20032;-77
2022/05/19 01:35:42;;;;;;;1.90;1.42;;;;;;;;;;5039630;28;20025;-76
2022/05/19 01:38:28;;;;;;;1.88;1.77;;;;;;;;;;5039532;28;20037;-77
2022/05/19 01:41:13;;;;;;;3.38;1.80;;;;;;;;;;5046803;28;20502;-77
2022/05/19 01:43:53;;;;;;;3.85;1.27;;;;;;;;;;5046018;28;20126;-77
2022/05/19 01:46:25;;;;;;;2.50;1.40;;;;;;;;;;5042554;28;20036;-77
2022/05/19 01:48:57;;;;;;;1.67;1.50;;;;;;;;;;5038938;28;20399;-77
2022/05/19 01:51:23;;;;;;;2.40;1.48;;;;;;;;;;5044428;28;20033;-77
2022/05/19 01:54:04;;;;;;;1.90;1.73;;;;;;;;;;5047629;28;20033;-77
2022/05/19 01:56:49;;;;;;;3.20;1.77;;;;;;;;;;5047548;28;20086;-77
2022/05/19 01:59:19;;;;;;;2.20;1.75;;;;;;;;;;5034485;28;20190;-77
2022/05/19 02:01:49;;;;;;;2.08;1.50;;;;;;;;;;5048593;28;20024;-77
2022/05/19 02:04:22;;;;;;;2.10;1.38;;;;;;;;;;5047299;28;20067;-77
2022/05/19 02:06:51;;;;;;;1.38;1.20;;;;;;;;;;5035687;28;20025;-77
2022/05/19 02:09:20;;;;;;;2.42;1.55;;;;;;;;;;5044367;28;20469;-77
2022/05/19 02:11:48;;;;;;;3.15;1.90;;;;;;;;;;5048781;28;20037;-77
2022/05/19 02:14:16;;;;;;;1.35;1.10;;;;;;;;;;5048548;28;20044;-77
2022/05/19 02:16:43;;;;;;;1.50;1.23;;;;;;;;;;5051558;28;20485;-77
2022/05/19 02:19:11;;;;;;;1.92;1.83;;;;;;;;;;5046323;28;20586;-77
2022/05/19 02:21:37;;;;;;;2.15;1.15;;;;;;;;;;5049219;28;20123;-76
2022/05/19 02:24:03;;;;;;;2.80;1.40;;;;;;;;;;5043937;28;20168;-76
2022/05/19 02:26:32;;;;;;;2.92;1.77;;;;;;;;;;5043046;28;20021;-77
2022/05/19 02:29:01;;;;;;;1.63;1.30;;;;;;;;;;5049129;28;20032;-76
2022/05/19 02:31:27;;;;;;;5.50;1.15;;;;;;;;;;5038390;28;20040;-76
2022/05/19 02:33:53;;;;;;;1.13;0.90;;;;;;;;;;5041553;28;20037;-77
2022/05/19 02:36:19;;;;;;;1.35;1.25;;;;;;;;;;5048221;28;20031;-77
2022/05/19 02:38:45;;;;;;;1.45;1.27;;;;;;;;;;5047425;28;20112;-76
2022/05/19 02:41:11;;;;;;;4.88;1.60;;;;;;;;;;5049994;28;20456;-76
2022/05/19 02:43:37;;;;;;;0.82;0.82;;;;;;;;;;5035640;28;20116;-76
2022/05/19 02:46:03;;;;;;;1.60;1.38;;;;;;;;;;5044866;28;20060;-77
2022/05/19 02:48:30;;;;;;;1.20;1.00;;;;;;;;;;5043001;28;20116;-77
2022/05/19 02:50:56;;;;;;;4.15;1.95;;;;;;;;;;5048844;28;20555;-76
2022/05/19 02:53:22;;;;;;;1.90;1.23;;;;;;;;;;5050821;28;20112;-76
2022/05/19 02:55:47;;;;;;;1.35;1.25;;;;;;;;;;5048614;28;20016;-76
2022/05/19 02:58:14;;;;;;;1.50;1.20;;;;;;;;;;5045322;28;20024;-77
2022/05/19 03:00:45;;;;;;;1.95;1.30;;;;;;;;;;5049327;28;20406;-76
2022/05/19 03:03:11;;;;;;;1.85;1.48;;;;;;;;;;5038911;28;20037;-76
2022/05/19 03:05:37;;;;;;;1.55;1.02;;;;;;;;;;5050350;28;20044;-77
2022/05/19 03:08:04;;;;;;;1.42;1.10;;;;;;;;;;5051305;28;20056;-76
2022/05/19 03:10:29;;;;;;;1.75;1.40;;;;;;;;;;5044713;28;20407;-76
2022/05/19 03:12:56;;;;;;;1.52;0.98;;;;;;;;;;5035433;28;20075;-76
2022/05/19 03:15:22;;;;;;;2.65;1.50;;;;;;;;;;5045730;28;20025;-76
2022/05/19 03:17:48;;;;;;;1.38;1.23;;;;;;;;;;5043541;28;20456;-77
2022/05/19 03:20:14;;;;;;;3.47;1.38;;;;;;;;;;5041469;28;20323;-76
2022/05/19 03:22:40;;;;;;;1.33;1.13;;;;;;;;;;5048874;28;20033;-76
2022/05/19 03:25:07;;;;;;;11.18;1.00;;;;;;;;;;5046624;28;20543;-76
2022/05/19 03:27:34;;;;;;;4.07;1.05;;;;;;;;;;5049794;28;20028;-76
2022/05/19 03:29:59;;;;;;;1.55;1.30;;;;;;;;;;5041853;28;20025;-77
2022/05/19 03:32:25;;;;;;;1.98;1.50;;;;;;;;;;5050654;28;20036;-77
2022/05/19 03:34:51;;;;;;;1.80;1.38;;;;;;;;;;5041114;28;20036;-76
2022/05/19 03:37:17;;;;;;;1.05;0.98;;;;;;;;;;5031015;28;20033;-76
2022/05/19 03:39:43;;;;;;;1.27;1.17;;;;;;;;;;5044852;28;20032;-76
2022/05/19 03:42:10;;;;;;;2.40;1.30;;;;;;;;;;5049069;28;20025;-76
2022/05/19 03:44:36;;;;;;;1.17;1.08;;;;;;;;;;5048629;28;20036;-76
2022/05/19 03:47:03;;;;;;;1.55;1.10;;;;;;;;;;5048197;28;20029;-76
2022/05/19 03:49:29;;;;;;;1.33;1.10;;;;;;;;;;5050979;28;20112;-77
2022/05/19 03:51:55;;;;;;;1.55;1.10;;;;;;;;;;5049620;28;20140;-77
2022/05/19 03:54:20;;;;;;;1.63;1.48;;;;;;;;;;5047132;28;20444;-77
2022/05/19 03:56:46;;;;;;;2.42;1.25;;;;;;;;;;5048860;28;20028;-76
2022/05/19 03:59:12;;;;;;;1.50;1.27;;;;;;;;;;5046343;28;20036;-77
2022/05/19 04:01:40;;;;;;;1.92;1.40;;;;;;;;;;5047225;28;20033;-77
2022/05/19 04:04:06;;;;;;;6.65;1.40;;;;;;;;;;5034564;28;20104;-76
2022/05/19 04:06:34;;;;;;;1.35;1.20;;;;;;;;;;5045866;28;20051;-77
2022/05/19 04:09:00;;;;;;;1.30;1.02;;;;;;;;;;5050144;28;20036;-76
2022/05/19 04:11:26;;;;;;;2.67;1.08;;;;;;;;;;5041357;28;20108;-76
2022/05/19 04:13:52;;;;;;;2.03;1.60;;;;;;;;;;5046167;28;20383;-76
2022/05/19 04:16:18;;;;;;;3.42;1.15;;;;;;;;;;5048598;28;20135;-76
2022/05/19 04:18:44;;;;;;;1.25;1.15;;;;;;;;;;5044818;28;20158;-77
2022/05/19 04:21:10;;;;;;;1.38;1.20;;;;;;;;;;5046622;28;20064;-77
2022/05/19 04:23:36;;;;;;;2.00;1.38;;;;;;;;;;5044963;28;20071;-76
2022/05/19 04:26:02;;;;;;;1.83;1.58;;;;;;;;;;5046945;28;20091;-77
2022/05/19 04:28:27;;;;;;;0.82;0.68;;;;;;;;;;5049726;28;20475;-77
2022/05/19 04:30:53;;;;;;;1.15;1.00;;;;;;;;;;5048985;28;20035;-77
2022/05/19 04:33:19;;;;;;;2.90;1.10;;;;;;;;;;5044827;28;20095;-78
2022/05/19 04:35:45;;;;;;;1.67;1.58;;;;;;;;;;5049315;28;20033;-77
2022/05/19 04:38:14;;;;;;;3.65;1.40;;;;;;;;;;5049466;28;20029;-77
2022/05/19 04:40:41;;;;;;;2.20;1.50;;;;;;;;;;5048808;28;20427;-78
2022/05/19 04:43:08;;;;;;;1.98;1.13;;;;;;;;;;5045544;28;20076;-77
2022/05/19 04:45:34;;;;;;;4.55;1.33;;;;;;;;;;5049736;28;20036;-77
2022/05/19 04:48:00;;;;;;;1.20;1.02;;;;;;;;;;5041104;28;20017;-76
2022/05/19 04:50:26;;;;;;;1.58;1.17;;;;;;;;;;5048999;28;20163;-76
2022/05/19 04:52:52;;;;;;;1.48;1.38;;;;;;;;;;5040471;28;20538;-77
2022/05/19 04:55:18;;;;;;;1.63;1.33;;;;;;;;;;5048774;28;20033;-76
2022/05/19 04:57:44;;;;;;;1.35;1.17;;;;;;;;;;5045613;28;20037;-77
2022/05/19 05:00:12;;;;;;;1.73;1.60;;;;;;;;;;5029903;28;20496;-76
2022/05/19 05:02:38;;;;;;;1.27;1.17;;;;;;;;;;5037917;28;20053;-77
2022/05/19 05:05:04;;;;;;;1.33;1.23;;;;;;;;;;5047270;28;20138;-77
2022/05/19 05:07:30;;;;;;;1.75;1.10;;;;;;;;;;5044760;28;20025;-77
2022/05/19 05:09:56;;;;;;;3.78;1.38;;;;;;;;;;5040839;28;20021;-77
2022/05/19 05:12:22;;;;;;;1.30;1.13;;;;;;;;;;5041377;28;20021;-77
2022/05/19 05:14:48;;;;;;;1.92;1.45;;;;;;;;;;5047420;28;20151;-77
2022/05/19 05:17:14;;;;;;;1.88;1.48;;;;;;;;;;5042149;28;20033;-76
2022/05/19 05:19:41;;;;;;;1.20;1.10;;;;;;;;;;5044698;28;20555;-77
2022/05/19 05:22:07;;;;;;;3.10;1.15;;;;;;;;;;5039230;28;20025;-76
2022/05/19 05:24:32;;;;;;;1.30;1.10;;;;;;;;;;5045754;28;20501;-77
2022/05/19 05:26:58;;;;;;;1.13;1.02;;;;;;;;;;5044595;28;20042;-77
2022/05/19 05:29:28;;;;;;;3.17;1.38;;;;;;;;;;5044478;28;20040;-78
2022/05/19 05:31:54;;;;;;;3.92;2.20;;;;;;;;;;5051515;28;20156;-78
2022/05/19 05:34:20;;;;;;;3.65;1.55;;;;;;;;;;5043326;28;20493;-78
2022/05/19 05:36:46;;;;;;;3.33;1.65;;;;;;;;;;5041293;28;20033;-81
2022/05/19 05:39:11;;;;;;;2.05;1.48;;;;;;;;;;5045978;28;20083;-83
2022/05/19 05:41:38;;;;;;;6.40;1.88;;;;;;;;;;5040046;28;20025;-83
2022/05/19 05:44:04;;;;;;;2.10;1.42;;;;;;;;;;5041347;28;20072;-81
2022/05/19 05:46:30;;;;;;;1.33;1.23;;;;;;;;;;5043746;28;20049;-84
2022/05/19 05:48:56;;;;;;;1.02;0.90;;;;;;;;;;5042262;28;20040;-83
2022/05/19 05:51:22;;;;;;;17.15;1.55;;;;;;;;;;5042951;28;20472;-82
2022/05/19 05:53:48;;;;;;;1.67;1.08;;;;;;;;;;5039437;28;20025;-83
2022/05/19 05:56:15;;;;;;;1.70;1.25;;;;;;;;;;5039887;28;20620;-86
2022/05/19 05:58:41;;;;;;;1.60;1.23;;;;;;;;;;5043436;28;20049;-84
2022/05/19 06:01:09;;;;;;;1.08;0.98;;;;;;;;;;5043641;28;20056;-84
2022/05/19 06:03:35;;;;;;;1.92;1.00;;;;;;;;;;5034399;28;20029;-82
2022/05/19 06:06:02;;;;;;;2.00;1.70;;;;;;;;;;5035153;28;20133;-84
2022/05/19 06:08:28;;;;;;;3.03;1.33;;;;;;;;;;5037077;28;20757;-81
2022/05/19 06:10:54;;;;;;;1.52;1.42;;;;;;;;;;5039923;28;20025;-79
2022/05/19 06:13:20;;;;;;;1.90;1.00;;;;;;;;;;5040675;28;20478;-86
2022/05/19 06:15:46;;;;;;;2.03;1.20;;;;;;;;;;5045956;28;20044;-87
2022/05/19 06:18:12;;;;;;;1.52;1.23;;;;;;;;;;5044956;28;20026;-81
2022/05/19 06:20:39;;;;;;;1.77;1.42;;;;;;;;;;5033598;28;20028;-80
2022/05/19 06:23:05;;;;;;;2.35;1.85;;;;;;;;;;5040428;28;20040;-81
2022/05/19 06:25:32;;;;;;;1.40;1.05;;;;;;;;;;5042085;28;20167;-83
2022/05/19 06:27:58;;;;;;;1.77;1.42;;;;;;;;;;5047283;28;20168;-81
2022/05/19 06:30:24;;;;;;;1.60;1.33;;;;;;;;;;5040889;28;20041;-80
2022/05/19 06:32:50;;;;;;;1.63;1.42;;;;;;;;;;5047590;28;20384;-77
2022/05/19 06:35:20;;;;;;;5.38;1.00;;;;;;;;;;5039594;28;20025;-79
2022/05/19 06:37:46;;;;;;;3.28;1.33;;;;;;;;;;5039360;28;20323;-79
2022/05/19 06:40:15;;;;;;;3.35;1.45;;;;;;;;;;5052037;28;20537;-76
2022/05/19 06:42:42;;;;;;;1.95;1.08;;;;;;;;;;5047030;28;20025;-77
2022/05/19 06:45:08;;;;;;;1.33;1.10;;;;;;;;;;5045056;28;20119;-77
2022/05/19 06:47:35;;;;;;;1.52;1.20;;;;;;;;;;5046946;28;20484;-76
2022/05/19 06:50:02;;;;;;;1.85;1.30;;;;;;;;;;5045707;28;20055;-79
2022/05/19 06:52:30;;;;;;;2.08;1.50;;;;;;;;;;5036507;28;20120;-84
2022/05/19 06:54:58;;;;;;;2.75;1.30;;;;;;;;;;5043123;28;20017;-80
2022/05/19 06:57:25;;;;;;;2.00;1.73;;;;;;;;;;5044722;28;20029;-78
2022/05/19 06:59:51;;;;;;;2.85;1.73;;;;;;;;;;5037883;28;20030;-78
2022/05/19 07:02:18;;;;;;;1.75;1.38;;;;;;;;;;5044824;28;20071;-79
2022/05/19 07:04:44;;;;;;;2.28;1.38;;;;;;;;;;5045629;28;20044;-81
2022/05/19 07:07:13;;;;;;;1.70;1.45;;;;;;;;;;5043362;28;20048;-80
2022/05/19 07:09:40;;;;;;;2.72;2.50;;;;;;;;;;5028982;28;20026;-80
2022/05/19 07:12:07;;;;;;;1.48;1.25;;;;;;;;;;5041867;28;20025;-78
2022/05/19 07:14:33;;;;;;;2.53;1.83;;;;;;;;;;5051195;28;20555;-80
2022/05/19 07:16:59;;;;;;;1.67;1.55;;;;;;;;;;5048377;28;20619;-78
2022/05/19 07:22:14;;;;;;;1.95;1.48;;;;;;;;;;5049275;28;20039;-77
2022/05/19 07:24:40;;;;;;;3.78;1.65;;;;;;;;;;5047501;28;20064;-81
2022/05/19 07:27:06;;;;;;;3.95;1.98;;;;;;;;;;5042549;28;20037;-80
2022/05/19 07:29:32;;;;;;;4.15;1.40;;;;;;;;;;5042892;28;20036;-81
2022/05/19 07:32:00;;;;;;;1.83;1.52;;;;;;;;;;5050636;28;20017;-81
2022/05/19 07:34:28;;;;;;;3.38;1.50;;;;;;;;;;5049681;28;20032;-81
2022/05/19 07:36:53;;;;;;;4.28;1.98;;;;;;;;;;5041280;28;20078;-76
2022/05/19 07:39:19;;;;;;;2.45;1.65;;;;;;;;;;5050245;28;20033;-77
2022/05/19 07:41:46;;;;;;;1.50;1.38;;;;;;;;;;5046162;28;20029;-76
2022/05/19 07:44:12;;;;;;;2.95;1.63;;;;;;;;;;5050535;28;20096;-77
2022/05/19 07:46:38;;;;;;;2.50;1.92;;;;;;;;;;5047030;28;20025;-76
2022/05/19 07:49:04;;;;;;;2.85;1.95;;;;;;;;;;5045753;28;20468;-76
2022/05/19 07:51:36;;;;;;;2.50;1.65;;;;;;;;;;5042849;28;20022;-77
2022/05/19 07:54:02;;;;;;;3.92;1.92;;;;;;;;;;5030515;28;20438;-77
2022/05/19 07:56:28;;;;;;;3.20;1.50;;;;;;;;;;5045888;28;20478;-76
2022/05/19 07:58:54;;;;;;;6.82;2.05;;;;;;;;;;5041426;28;20037;-76
2022/05/19 08:01:20;;;;;;;2.05;1.67;;;;;;;;;;5044311;28;20052;-76
2022/05/19 08:03:46;;;;;;;3.70;2.10;;;;;;;;;;5049577;28;20125;-80
2022/05/19 08:06:11;;;;;;;2.40;1.48;;;;;;;;;;5050025;28;20098;-80
2022/05/19 08:08:39;;;;;;;1.85;1.58;;;;;;;;;;5049754;28;20021;-80
2022/05/19 08:11:05;;;;;;;3.20;2.38;;;;;;;;;;5042163;28;20036;-80
2022/05/19 08:16:15;;;;;;;2.67;2.13;;;;;;;;;;5038256;28;20556;-77
2022/05/19 08:18:41;;;;;;;2.35;1.63;;;;;;;;;;5042345;28;20090;-77
2022/05/19 08:21:09;;;;;;;2.13;1.85;;;;;;;;;;5031336;28;20033;-77
2022/05/19 08:23:36;;;;;;;1.33;1.23;;;;;;;;;;5045995;28;20130;-77
2022/05/19 08:26:03;;;;;;;2.00;1.80;;;;;;;;;;5039670;28;20063;-77
2022/05/19 08:28:29;;;;;;;2.47;1.65;;;;;;;;;;5043377;28;20036;-77
2022/05/19 08:30:56;;;;;;;2.35;1.80;;;;;;;;;;5044981;28;20251;-77
2022/05/19 08:33:22;;;;;;;2.08;1.50;;;;;;;;;;5043120;28;20020;-76
2022/05/19 08:35:49;;;;;;;4.30;2.00;;;;;;;;;;5046331;28;20040;-77
2022/05/19 08:38:15;;;;;;;3.17;1.75;;;;;;;;;;5046722;28;20032;-80
2022/05/19 08:40:43;;;;;;;2.17;1.92;;;;;;;;;;5055571;28;20506;-82
2022/05/19 08:43:11;;;;;;;2.15;1.95;;;;;;;;;;5047492;28;20029;-76
2022/05/19 08:45:39;;;;;;;2.58;1.60;;;;;;;;;;5038357;28;20110;-77
2022/05/19 08:48:09;;;;;;;2.53;1.80;;;;;;;;;;5043582;28;20040;-77
2022/05/19 08:50:43;;;;;;;6.60;3.10;;;;;;;;;;5045146;28;20457;-77
2022/05/19 08:53:11;;;;;;;2.00;1.60;;;;;;;;;;5029837;28;20029;-77
2022/05/19 08:55:38;;;;;;;2.30;1.45;;;;;;;;;;5036577;28;20025;-76
2022/05/19 08:58:14;;;;;;;5.28;1.70;;;;;;;;;;5042439;28;20103;-77
2022/05/19 09:01:01;;;;;;;2.63;1.63;;;;;;;;;;5029248;28;20033;-78
2022/05/19 09:03:39;;;;;;;1.83;1.60;;;;;;;;;;5029129;28;20507;-76
2022/05/19 09:06:25;;;;;;;1.73;1.45;;;;;;;;;;5032195;28;20060;-77
2022/05/19 09:09:23;;;;;;;2.35;1.80;;;;;;;;;;5041052;28;20107;-77
2022/05/19 09:12:03;;;;;;;1.70;1.27;;;;;;;;;;5008847;28;20033;-78
2022/05/19 09:14:30;;;;;;;4.03;2.00;;;;;;;;;;5029136;28;20030;-77
2022/05/19 09:17:00;;;;;;;2.95;1.90;;;;;;;;;;5035249;28;20403;-77
2022/05/19 09:19:32;;;;;;;1.65;1.55;;;;;;;;;;5032462;28;20078;-76
2022/05/19 09:22:10;;;;;;;1.90;1.40;;;;;;;;;;5028999;28;20033;-77
2022/05/19 09:24:36;;;;;;;3.40;1.33;;;;;;;;;;5035965;28;20130;-77
2022/05/19 09:27:03;;;;;;;3.70;1.50;;;;;;;;;;5033350;28;20021;-74
2022/05/19 09:29:30;;;;;;;2.15;1.70;;;;;;;;;;5038380;28;20026;-74
2022/05/19 09:32:05;;;;;;;3.40;2.22;;;;;;;;;;5028696;28;20061;-77
2022/05/19 09:34:33;;;;;;;3.22;1.65;;;;;;;;;;5028755;28;20025;-77
2022/05/19 09:37:08;;;;;;;1.35;1.25;;;;;;;;;;5028569;28;20025;-78
2022/05/19 09:39:41;;;;;;;2.00;1.77;;;;;;;;;;5041943;28;20108;-77
2022/05/19 09:42:09;;;;;;;1.60;1.50;;;;;;;;;;5048498;28;20494;-77
2022/05/19 09:44:37;;;;;;;1.98;1.42;;;;;;;;;;5048193;28;20087;-77
2022/05/19 09:47:17;;;;;;;2.33;1.50;;;;;;;;;;5038096;28;20055;-77
2022/05/19 09:49:49;;;;;;;2.13;1.60;;;;;;;;;;5041904;28;20108;-76
2022/05/19 09:52:14;;;;;;;;;;;;;;;;;;5029032;28;20029;-77
2022/05/19 09:54:41;;;;;;;2.40;1.60;;;;;;;;;;5030671;28;19913;-77
2022/05/19 09:57:11;;;;;;;4.82;1.50;;;;;;;;;;5035202;28;20022;-78
2022/05/19 09:59:41;;;;;;;2.20;1.80;;;;;;;;;;5037448;28;20029;-75
2022/05/19 10:02:16;;;;;;;4.45;1.83;;;;;;;;;;5034748;28;20032;-76
2022/05/19 10:04:48;;;;;;;3.15;2.05;;;;;;;;;;5027583;28;20129;-76
2022/05/19 10:07:22;;;;;;;2.42;1.52;;;;;;;;;;5029205;28;20599;-76
2022/05/19 10:09:48;;;;;;;1.67;1.50;;;;;;;;;;5036594;28;20365;-76
2022/05/19 10:12:21;;;;;;;6.07;1.77;;;;;;;;;;5029286;28;20030;-76
2022/05/19 10:14:50;;;;;;;2.78;1.85;;;;;;;;;;5028352;28;20558;-76
2022/05/19 10:17:16;;;;;;;1.73;1.27;;;;;;;;;;5028105;28;20029;-77
2022/05/19 10:19:41;;;;;;;1.73;1.63;;;;;;;;;;5031205;28;20029;-76
2022/05/19 10:22:20;;;;;;;2.28;2.05;;;;;;;;;;5034329;28;20480;-76
2022/05/19 10:25:03;;;;;;;1.48;1.38;;;;;;;;;;5036387;28;20436;-76
2022/05/19 10:33:23;;;;;;;1.70;1.60;;;;;;;;;;5027652;28;20452;-76
2022/05/19 10:36:08;;;;;;;2.35;1.80;;;;;;;;;;5028492;28;20021;-77
2022/05/19 10:38:45;;;;;;;1.83;1.55;;;;;;;;;;5031913;28;20025;-76
2022/05/19 10:41:34;;;;;;;1.35;1.25;;;;;;;;;;5048317;28;20633;-76
2022/05/19 10:44:20;;;;;;;2.35;1.48;;;;;;;;;;5045739;28;20024;-77
2022/05/19 10:46:49;;;;;;;1.85;1.70;;;;;;;;;;5049864;28;20047;-77
2022/05/19 10:49:30;;;;;;;2.47;1.83;;;;;;;;;;5051285;28;20021;-77
2022/05/19 10:52:04;;;;;;;13.50;2.40;;;;;;;;;;5040492;28;20479;-77
2022/05/19 10:54:30;;;;;;;1.20;1.10;;;;;;;;;;5051552;28;20098;-77
2022/05/19 10:56:56;;;;;;;1.92;1.40;;;;;;;;;;5049647;28;20475;-76
2022/05/19 10:59:41;;;;;;;1.63;1.50;;;;;;;;;;5034609;28;20053;-76
2022/05/19 11:02:16;;;;;;;1.90;1.50;;;;;;;;;;5029878;28;20650;-76
2022/05/19 11:04:51;;;;;;;2.08;1.50;;;;;;;;;;5034443;28;20038;-77
2022/05/19 11:07:37;;;;;;;4.28;1.83;;;;;;;;;;5036224;28;20032;-76
2022/05/19 11:10:07;;;;;;;1.60;1.35;;;;;;;;;;5038585;28;20029;-77
2022/05/19 11:12:45;;;;;;;2.85;1.80;;;;;;;;;;5044024;28;20036;-77
2022/05/19 11:15:23;;;;;;;1.63;1.42;;;;;;;;;;5043395;28;20033;-76
2022/05/19 11:17:56;;;;;;;1.20;1.10;;;;;;;;;;5043120;28;20032;-76
2022/05/19 11:20:33;;;;;;;2.28;1.35;;;;;;;;;;5027261;28;20021;-76
2022/05/19 11:23:06;;;;;;;3.50;1.60;;;;;;;;;;5031196;28;20025;-76
2022/05/19 11:28:42;;;;;;;6.18;1.70;;;;;;;;;;5045070;28;20070;-77
2022/05/19 11:31:13;;;;;;;1.75;1.50;;;;;;;;;;5050903;28;20047;-77
2022/05/19 11:33:41;;;;;;;3.70;1.60;;;;;;;;;;5050982;28;20040;-76
2022/05/19 11:36:17;;;;;;;1.60;1.50;;;;;;;;;;5047874;28;20032;-76
2022/05/19 11:38:49;;;;;;;1.20;1.05;;;;;;;;;;5045240;28;20073;-76
2022/05/19 11:41:18;;;;;;;3.55;1.77;;;;;;;;;;5064461;28;20463;-77
2022/05/19 11:43:47;;;;;;;1.65;1.55;;;;;;;;;;5050650;28;20025;-76
2022/05/19 11:46:18;;;;;;;1.77;1.38;;;;;;;;;;5047399;28;20034;-76
2022/05/19 11:57:29;;;;;;;2.05;1.50;;;;;;;;;;5030574;28;20542;-76
2022/05/19 11:59:56;;;;;;;1.50;1.30;;;;;;;;;;5043258;28;20040;-76
2022/05/19 12:02:28;;;;;;;2.08;1.65;;;;;;;;;;5035723;28;20084;-76
2022/05/19 12:04:58;;;;;;;1.48;1.20;;;;;;;;;;5030187;28;20052;-76
2022/05/19 12:07:36;;;;;;;1.73;1.30;;;;;;;;;;5027870;28;20045;-76
2022/05/19 12:10:03;;;;;;;1.83;1.38;;;;;;;;;;5029225;28;20392;-76
2022/05/19 12:12:39;;;;;;;4.75;1.83;;;;;;;;;;5040719;28;20033;-76
2022/05/19 12:15:15;;;;;;;1.15;1.05;;;;;;;;;;5030291;28;20034;-76
2022/05/19 12:17:52;;;;;;;2.95;1.30;;;;;;;;;;5030217;28;20053;-77
2022/05/19 12:20:35;;;;;;;1.45;1.25;;;;;;;;;;5029769;28;20033;-75
2022/05/19 12:23:20;;;;;;;1.63;1.20;;;;;;;;;;5037155;28;20035;-75
2022/05/19 12:25:48;;;;;;;1.90;1.23;;;;;;;;;;5029740;28;20027;-76
2022/05/19 12:28:14;;;;;;;1.38;1.27;;;;;;;;;;5029799;28;20026;-76
2022/05/19 12:33:31;;;;;;;1.30;1.20;;;;;;;;;;5042555;28;20060;-76
2022/05/19 12:35:58;;;;;;;;;;;;;;;;;;5034529;28;20091;-77
2022/05/19 12:38:36;;;;;;;2.08;1.30;;;;;;;;;;5030260;28;19909;-76
2022/05/19 12:41:03;;;;;;;1.30;1.20;;;;;;;;;;5040061;28;20761;-76
2022/05/19 12:43:36;;;;;;;1.50;1.38;;;;;;;;;;5027158;28;20037;-76
2022/05/19 12:46:02;;;;;;;2.08;1.17;;;;;;;;;;5031333;28;20025;-76
2022/05/19 12:48:31;;;;;;;2.10;1.58;;;;;;;;;;5039988;28;20032;-76
2022/05/19 12:51:08;;;;;;;1.67;1.50;;;;;;;;;;5029715;28;20095;-76
2022/05/19 12:53:49;;;;;;;2.10;1.67;;;;;;;;;;5034051;28;20491;-78
2022/05/19 12:56:35;;;;;;;1.65;1.42;;;;;;;;;;5044953;28;20032;-76
2022/05/19 12:59:03;;;;;;;1.40;1.30;;;;;;;;;;5035681;28;20500;-76
2022/05/19 13:01:32;;;;;;;2.33;1.80;;;;;;;;;;5043840;28;20041;-76
2022/05/19 13:04:07;;;;;;;1.92;1.65;;;;;;;;;;5043918;28;20121;-79
2022/05/19 13:06:33;;;;;;;1.50;1.40;;;;;;;;;;5042108;28;20044;-79
2022/05/19 13:09:02;;;;;;;1.90;1.70;;;;;;;;;;5037482;28;20028;-79
2022/05/19 13:11:31;;;;;;;1.50;1.40;;;;;;;;;;5040110;28;20067;-79
2022/05/19 13:14:00;;;;;;;2.13;1.70;;;;;;;;;;5041529;28;20082;-79
2022/05/19 13:16:27;;;;;;;4.35;1.70;;;;;;;;;;5044513;28;20082;-78
2022/05/19 13:18:59;;;;;;;1.85;1.40;;;;;;;;;;5041949;28;20096;-78
2022/05/19 13:21:34;;;;;;;2.60;2.10;;;;;;;;;;5044674;28;20123;-79
2022/05/19 13:24:06;;;;;;;1.98;1.55;;;;;;;;;;5038963;28;20021;-79
2022/05/19 13:26:33;;;;;;;1.52;1.35;;;;;;;;;;5042650;28;20036;-78
2022/05/19 13:32:02;;;;;;;2.13;1.75;;;;;;;;;;5038310;28;20032;-78
2022/05/19 13:34:29;;;;;;;1.58;1.27;;;;;;;;;;5043642;28;20025;-79
2022/05/19 13:37:00;;;;;;;1.75;1.55;;;;;;;;;;5046105;28;20368;-78
2022/05/19 13:39:25;;;;;;;;;;;;;;;;;;5049150;28;20028;-78
2022/05/19 13:41:53;;;;;;;1.90;1.40;;;;;;;;;;5053317;28;19988;-78
2022/05/19 13:44:23;;;;;;;1.50;1.40;;;;;;;;;;5035889;28;20021;-77
2022/05/19 13:46:49;;;;;;;3.55;1.92;;;;;;;;;;5048677;28;20025;-76
2022/05/19 13:49:18;;;;;;;1.95;1.40;;;;;;;;;;5048591;28;20033;-77
2022/05/19 13:51:47;;;;;;;1.55;1.38;;;;;;;;;;5041477;28;20025;-77
2022/05/19 13:54:25;;;;;;;1.77;1.40;;;;;;;;;;5034379;28;20033;-78
2022/05/19 13:56:57;;;;;;;3.40;1.38;;;;;;;;;;5038123;28;20025;-77
2022/05/19 13:59:28;;;;;;;16.52;2.95;;;;;;;;;;5038917;28;20448;-78
2022/05/19 14:01:55;;;;;;;;;;;;;;;;;;5047699;28;20087;-78
2022/05/19 14:04:22;;;;;;;2.45;1.63;;;;;;;;;;5041677;28;19917;-78
2022/05/19 14:06:48;;;;;;;1.77;1.30;;;;;;;;;;5046098;28;20033;-78
2022/05/19 14:09:23;;;;;;;1.45;1.35;;;;;;;;;;5040202;28;20180;-79
2022/05/19 14:12:07;;;;;;;3.25;1.85;;;;;;;;;;5046647;28;20032;-79
2022/05/19 14:14:33;;;;;;;1.50;1.40;;;;;;;;;;5050768;28;20029;-78
2022/05/19 14:16:59;;;;;;;1.35;1.25;;;;;;;;;;5046356;28;20112;-79
2022/05/19 14:19:37;;;;;;;1.60;1.50;;;;;;;;;;5050987;28;20108;-78
2022/05/19 14:22:03;;;;;;;1.75;1.50;;;;;;;;;;5047002;28;20044;-78
2022/05/19 14:24:29;;;;;;;1.55;1.45;;;;;;;;;;5032462;28;20063;-78
2022/05/19 14:26:56;;;;;;;4.55;1.65;;;;;;;;;;5044297;28;20061;-78
2022/05/19 14:29:27;;;;;;;1.58;1.45;;;;;;;;;;5050444;28;20025;-78
2022/05/19 14:31:56;;;;;;;1.50;1.40;;;;;;;;;;5047202;28;20037;-79
2022/05/19 14:34:39;;;;;;;1.10;0.93;;;;;;;;;;5051476;28;20029;-79
2022/05/19 14:37:16;;;;;;;1.40;1.13;;;;;;;;;;5050449;28;20037;-79
2022/05/19 14:39:45;;;;;;;1.08;1.08;;;;;;;;;;5046592;28;20082;-79
2022/05/19 14:44:59;;;;;;;1.13;0.98;;;;;;;;;;5046812;28;20067;-79
2022/05/19 14:47:27;;;;;;;1.55;1.20;;;;;;;;;;5045995;28;20080;-79
2022/05/19 14:49:58;;;;;;;1.40;1.30;;;;;;;;;;5050328;28;20120;-78
2022/05/19 14:52:33;;;;;;;1.85;1.50;;;;;;;;;;5039222;28;20041;-78
2022/05/19 14:54:59;;;;;;;1.20;1.10;;;;;;;;;;5044465;28;20040;-80
2022/05/19 14:57:28;;;;;;;1.73;1.40;;;;;;;;;;5051781;28;20021;-79
2022/05/19 14:59:56;;;;;;;1.95;1.10;;;;;;;;;;5044177;28;20030;-78
2022/05/19 15:02:23;;;;;;;3.92;1.40;;;;;;;;;;5044949;28;20066;-79
2022/05/19 15:04:50;;;;;;;1.52;1.42;;;;;;;;;;5043170;28;20057;-78
2022/05/19 15:07:38;;;;;;;1.30;1.20;;;;;;;;;;5050248;28;20033;-79
2022/05/19 15:10:04;;;;;;;1.75;1.40;;;;;;;;;;5049481;28;20416;-78
2022/05/19 15:12:30;;;;;;;1.60;1.48;;;;;;;;;;5045141;28;20179;-78
2022/05/19 15:14:56;;;;;;;1.40;1.30;;;;;;;;;;5038269;28;20133;-78
2022/05/19 15:17:22;;;;;;;1.35;1.20;;;;;;;;;;5041797;28;20063;-78
2022/05/19 15:19:48;;;;;;;1.02;1.00;;;;;;;;;;5044990;28;20050;-79
2022/05/19 15:22:14;;;;;;;1.58;1.40;;;;;;;;;;5046795;28;20052;-78
2022/05/19 15:24:52;;;;;;;1.98;1.33;;;;;;;;;;5036297;28;20065;-79
2022/05/19 15:27:20;;;;;;;1.95;1.33;;;;;;;;;;5044993;28;20033;-78